createdAt,value
2019-02-24T00:00:44.690Z,-1.60
2019-02-24T00:04:10.649Z,-1.60
2019-02-24T00:07:55.610Z,-1.60
2019-02-24T00:11:21.553Z,-1.70
2019-02-24T00:14:41.393Z,-1.70
2019-02-24T00:18:00.655Z,-1.70
2019-02-24T00:21:19.027Z,-1.70
2019-02-24T00:24:37.712Z,-1.60
2019-02-24T00:27:56.594Z,-1.50
2019-02-24T00:31:14.765Z,-1.40
2019-02-24T00:34:36.459Z,-1.50
2019-02-24T00:37:54.669Z,-1.60
2019-02-24T00:41:14.054Z,-1.80
2019-02-24T00:44:32.911Z,-1.80
2019-02-24T00:47:50.972Z,-1.80
2019-02-24T00:51:09.822Z,-1.80
2019-02-24T00:54:29.590Z,-1.90
2019-02-24T00:57:47.854Z,-2.00
2019-02-24T01:01:06.968Z,-2.00
2019-02-24T01:04:28.160Z,-2.10
2019-02-24T01:07:46.429Z,-2.10
2019-02-24T01:11:05.289Z,-2.10
2019-02-24T01:14:26.292Z,-2.00
2019-02-24T01:17:46.263Z,-2.00
2019-02-24T01:21:05.118Z,-2.10
2019-02-24T01:24:24.781Z,-2.10
2019-02-24T01:27:44.956Z,-2.20
2019-02-24T01:31:04.215Z,-2.20
2019-02-24T01:34:23.194Z,-2.30
2019-02-24T01:37:41.707Z,-2.20
2019-02-24T01:41:00.051Z,-2.30
2019-02-24T01:44:18.226Z,-2.30
2019-02-24T01:47:37.348Z,-2.30
2019-02-24T01:50:55.817Z,-2.30
2019-02-24T01:54:12.730Z,-2.30
2019-02-24T01:57:38.830Z,-2.30
2019-02-24T02:01:05.122Z,-2.40
2019-02-24T02:04:31.791Z,-2.40
2019-02-24T02:07:38.941Z,-2.40
2019-02-24T02:11:05.033Z,-2.50
2019-02-24T02:14:29.398Z,-2.50
2019-02-24T02:17:47.968Z,-2.50
2019-02-24T02:20:55.199Z,-2.50
2019-02-24T02:24:33.635Z,-2.30
2019-02-24T02:31:28.226Z,-2.20
2019-02-24T02:34:36.854Z,-2.40
2019-02-24T02:37:48.209Z,-2.40
2019-02-24T02:41:45.740Z,-2.40
2019-02-24T02:45:15.362Z,-2.50
2019-02-24T02:48:23.511Z,-2.30
2019-02-24T02:51:49.950Z,-2.60
2019-02-24T02:55:35.406Z,-2.70
2019-02-24T02:59:20.410Z,-2.80
2019-02-24T03:02:50.953Z,-2.70
2019-02-24T03:06:35.816Z,-2.80
2019-02-24T03:10:02.824Z,-2.70
2019-02-24T03:13:47.261Z,-2.50
2019-02-24T03:17:07.713Z,-2.60
2019-02-24T03:20:28.847Z,-2.70
2019-02-24T03:23:47.308Z,-2.80
2019-02-24T03:27:05.666Z,-2.90
2019-02-24T03:30:24.937Z,-2.90
2019-02-24T03:33:46.035Z,-2.90
2019-02-24T03:37:05.400Z,-2.90
2019-02-24T03:40:24.792Z,-2.90
2019-02-24T03:43:32.399Z,-2.90
2019-02-24T03:46:40.064Z,-2.90
2019-02-24T03:49:47.924Z,-3.00
2019-02-24T03:52:55.012Z,-2.90
2019-02-24T03:56:02.601Z,-2.90
2019-02-24T03:59:28.575Z,-3.00
2019-02-24T04:02:54.468Z,-3.00
2019-02-24T04:06:37.868Z,-3.00
2019-02-24T04:10:04.207Z,-2.90
2019-02-24T04:13:30.269Z,-2.90
2019-02-24T04:16:48.673Z,-2.70
2019-02-24T04:20:06.992Z,-2.70
2019-02-24T04:23:27.386Z,-2.80
2019-02-24T04:26:53.960Z,-2.80
2019-02-24T04:30:17.179Z,-2.60
2019-02-24T04:33:40.947Z,-2.50
2019-02-24T04:37:00.456Z,-2.60
2019-02-24T04:40:21.845Z,-2.70
2019-02-24T04:43:41.342Z,-2.70
2019-02-24T04:47:00.277Z,-2.60
2019-02-24T04:50:19.963Z,-2.70
2019-02-24T04:53:39.876Z,-2.80
2019-02-24T04:56:57.994Z,-2.90
2019-02-24T05:00:04.911Z,-2.90
2019-02-24T05:03:31.015Z,-3.00
2019-02-24T05:07:18.465Z,-3.00
2019-02-24T05:10:44.591Z,-3.10
2019-02-24T05:18:02.278Z,-3.00
2019-02-24T05:21:45.890Z,-3.10
2019-02-24T05:25:11.855Z,-3.10
2019-02-24T05:28:38.123Z,-3.20
2019-02-24T05:32:10.238Z,-3.20
2019-02-24T05:35:36.771Z,-3.20
2019-02-24T05:39:03.448Z,-3.20
2019-02-24T05:42:43.400Z,-3.10
2019-02-24T05:46:36.740Z,-3.20
2019-02-24T05:50:06.557Z,-3.20
2019-02-24T05:53:32.674Z,-3.20
2019-02-24T05:56:58.621Z,-3.10
2019-02-24T06:00:24.904Z,-3.00
2019-02-24T06:03:50.778Z,-3.10
2019-02-24T06:07:16.823Z,-3.10
2019-02-24T06:10:42.752Z,-3.10
2019-02-24T06:14:08.658Z,-3.10
2019-02-24T06:17:26.983Z,-3.10
2019-02-24T06:20:45.954Z,-3.00
2019-02-24T06:24:04.825Z,-2.80
2019-02-24T06:27:23.681Z,-2.80
2019-02-24T06:30:44.912Z,-2.90
2019-02-24T06:34:03.125Z,-3.00
2019-02-24T06:37:21.377Z,-3.00
2019-02-24T06:40:40.414Z,-2.90
2019-02-24T06:43:59.145Z,-2.60
2019-02-24T06:47:17.465Z,-2.50
2019-02-24T06:50:53.425Z,-2.60
2019-02-24T06:58:08.141Z,-2.70
2019-02-24T07:01:34.147Z,-2.60
2019-02-24T07:05:02.151Z,-2.60
2019-02-24T07:08:28.146Z,-2.40
2019-02-24T07:12:14.588Z,-2.30
2019-02-24T07:15:31.545Z,-2.10
2019-02-24T07:18:57.437Z,-1.90
2019-02-24T07:22:23.407Z,-1.90
2019-02-24T07:25:49.392Z,-1.80
2019-02-24T07:29:15.301Z,-2.00
2019-02-24T07:32:41.229Z,-2.00
2019-02-24T07:36:07.169Z,-2.00
2019-02-24T07:39:33.086Z,-2.00
2019-02-24T07:43:19.393Z,-1.90
2019-02-24T07:46:45.265Z,-1.70
2019-02-24T07:54:14.328Z,-1.10
2019-02-24T07:57:40.336Z,-0.80
2019-02-24T08:01:06.355Z,-0.70
2019-02-24T08:04:33.615Z,-0.50
2019-02-24T08:07:59.499Z,-0.50
2019-02-24T08:11:25.422Z,-0.50
2019-02-24T08:15:11.386Z,-0.50
2019-02-24T08:18:37.310Z,-0.60
2019-02-24T08:22:03.303Z,-0.60
2019-02-24T08:25:36.634Z,-0.50
2019-02-24T08:32:51.227Z,-0.10
2019-02-24T08:36:18.055Z,0.20
2019-02-24T08:39:44.002Z,0.80
2019-02-24T08:43:10.058Z,1.00
2019-02-24T08:46:35.980Z,1.20
2019-02-24T08:50:01.885Z,1.50
2019-02-24T08:53:27.847Z,2.30
2019-02-24T08:56:55.569Z,2.80
2019-02-24T09:00:38.785Z,3.50
2019-02-24T09:04:04.674Z,4.20
2019-02-24T09:07:30.513Z,4.40
2019-02-24T09:10:56.392Z,4.40
2019-02-24T09:14:41.315Z,5.00
2019-02-24T09:17:59.414Z,5.50
2019-02-24T09:21:18.173Z,6.10
2019-02-24T09:24:36.189Z,6.50
2019-02-24T09:27:55.037Z,7.00
2019-02-24T09:31:15.087Z,6.70
2019-02-24T09:34:33.167Z,7.00
2019-02-24T09:37:51.672Z,7.40
2019-02-24T09:41:10.628Z,8.00
2019-02-24T09:44:29.593Z,9.00
2019-02-24T09:47:47.705Z,10.00
2019-02-24T09:51:05.895Z,10.90
2019-02-24T09:54:24.921Z,11.80
2019-02-24T09:57:43.681Z,9.90
2019-02-24T10:01:10.290Z,9.30
2019-02-24T10:04:23.188Z,9.80
2019-02-24T10:07:43.070Z,9.30
2019-02-24T10:11:02.304Z,9.10
2019-02-24T10:14:21.238Z,9.20
2019-02-24T10:17:39.377Z,12.00
2019-02-24T10:20:58.386Z,14.30
2019-02-24T10:24:16.872Z,15.90
2019-02-24T10:27:33.794Z,16.50
2019-02-24T10:31:01.527Z,14.10
2019-02-24T10:34:44.919Z,13.40
2019-02-24T10:38:10.846Z,16.30
2019-02-24T10:41:37.158Z,17.00
2019-02-24T10:45:03.215Z,17.60
2019-02-24T10:48:29.220Z,16.80
2019-02-24T10:51:55.145Z,16.50
2019-02-24T10:55:21.352Z,17.10
2019-02-24T11:02:55.732Z,16.80
2019-02-24T11:10:10.781Z,16.50
2019-02-24T11:13:36.737Z,16.60
2019-02-24T11:16:55.720Z,15.70
2019-02-24T11:20:13.949Z,16.30
2019-02-24T11:23:32.022Z,15.80
2019-02-24T11:26:51.805Z,17.10
2019-02-24T11:30:10.769Z,18.40
2019-02-24T11:33:28.572Z,18.90
2019-02-24T11:36:54.601Z,19.20
2019-02-24T11:40:20.633Z,17.70
2019-02-24T11:43:46.600Z,18.00
2019-02-24T11:47:12.544Z,18.70
2019-02-24T11:50:38.534Z,18.10
2019-02-24T11:54:05.405Z,17.00
2019-02-24T11:57:31.367Z,17.00
2019-02-24T12:00:57.335Z,16.50
2019-02-24T12:04:23.311Z,15.60
2019-02-24T12:07:49.666Z,14.70
2019-02-24T12:11:15.922Z,14.00
2019-02-24T12:14:42.251Z,13.30
2019-02-24T12:18:00.427Z,13.10
2019-02-24T12:21:18.645Z,13.00
2019-02-24T12:24:37.621Z,12.80
2019-02-24T12:27:56.575Z,12.60
2019-02-24T12:31:14.936Z,12.00
2019-02-24T12:34:38.494Z,11.90
2019-02-24T12:37:57.163Z,11.80
2019-02-24T12:41:15.503Z,11.70
2019-02-24T12:44:34.576Z,11.50
2019-02-24T12:47:53.543Z,11.50
2019-02-24T12:51:13.870Z,11.50
2019-02-24T12:54:32.476Z,11.50
2019-02-24T12:57:51.261Z,11.50
2019-02-24T13:01:10.423Z,11.50
2019-02-24T13:04:29.083Z,11.30
2019-02-24T13:07:46.170Z,11.10
2019-02-24T13:11:14.503Z,11.20
2019-02-24T13:14:40.852Z,11.20
2019-02-24T13:17:59.074Z,11.20
2019-02-24T13:21:18.177Z,11.10
2019-02-24T13:24:36.454Z,11.10
2019-02-24T13:27:54.651Z,11.00
2019-02-24T13:31:13.085Z,11.10
2019-02-24T13:34:32.468Z,11.10
2019-02-24T13:37:50.909Z,11.10
2019-02-24T13:41:13.887Z,11.20
2019-02-24T13:44:36.288Z,11.30
2019-02-24T13:47:44.613Z,11.30
2019-02-24T13:51:10.941Z,11.30
2019-02-24T13:54:44.079Z,11.40
2019-02-24T14:01:54.075Z,11.40
2019-02-24T14:05:20.133Z,11.60
2019-02-24T14:08:46.308Z,11.70
2019-02-24T14:12:12.390Z,11.70
2019-02-24T14:15:39.377Z,11.70
2019-02-24T14:18:58.550Z,11.70
2019-02-24T14:22:18.657Z,11.90
2019-02-24T14:25:37.415Z,12.10
2019-02-24T14:28:56.641Z,12.00
2019-02-24T14:32:16.106Z,11.90
2019-02-24T14:35:34.897Z,11.80
2019-02-24T14:38:53.692Z,11.80
2019-02-24T14:42:13.680Z,11.80
2019-02-24T14:45:32.374Z,11.80
2019-02-24T14:48:51.102Z,11.80
2019-02-24T14:52:09.963Z,12.00
2019-02-24T14:55:28.847Z,12.00
2019-02-24T14:58:48.451Z,11.90
2019-02-24T15:02:07.255Z,11.80
2019-02-24T15:05:25.472Z,12.10
2019-02-24T15:08:43.577Z,12.20
2019-02-24T15:12:01.997Z,12.20
2019-02-24T15:15:21.059Z,12.30
2019-02-24T15:18:27.808Z,12.30
2019-02-24T15:21:34.614Z,12.30
2019-02-24T15:28:25.670Z,12.10
2019-02-24T15:31:51.528Z,12.10
2019-02-24T15:34:58.315Z,12.00
2019-02-24T15:38:05.226Z,12.10
2019-02-24T15:41:31.163Z,12.10
2019-02-24T15:44:37.955Z,12.10
2019-02-24T15:47:44.768Z,12.10
2019-02-24T15:51:10.699Z,12.00
2019-02-24T15:54:36.576Z,11.90
2019-02-24T15:58:02.455Z,11.90
2019-02-24T16:01:28.338Z,11.90
2019-02-24T16:04:54.202Z,11.90
2019-02-24T16:12:09.286Z,11.90
2019-02-24T16:15:35.231Z,11.80
2019-02-24T16:18:53.870Z,11.50
2019-02-24T16:22:12.173Z,11.50
2019-02-24T16:25:21.047Z,11.60
2019-02-24T16:35:37.461Z,11.60
2019-02-24T16:42:54.455Z,11.30
2019-02-24T16:46:20.325Z,11.10
2019-02-24T16:49:46.320Z,10.90
2019-02-24T16:53:12.311Z,10.60
2019-02-24T16:56:50.427Z,10.40
2019-02-24T17:00:23.574Z,10.20
2019-02-24T17:03:49.656Z,9.90
2019-02-24T17:06:56.756Z,9.80
2019-02-24T17:10:04.103Z,9.50
2019-02-24T17:13:11.093Z,9.10
2019-02-24T17:16:19.488Z,8.70
2019-02-24T17:19:26.480Z,8.50
2019-02-24T17:22:33.380Z,8.30
2019-02-24T17:25:40.231Z,8.00
2019-02-24T17:29:06.365Z,7.50
2019-02-24T17:32:32.224Z,7.10
2019-02-24T17:35:58.189Z,6.90
2019-02-24T17:39:44.459Z,7.00
2019-02-24T17:43:10.399Z,7.00
2019-02-24T17:46:36.297Z,6.80
2019-02-24T17:53:50.980Z,6.50
2019-02-24T17:57:16.945Z,6.20
2019-02-24T18:04:36.859Z,6.10
2019-02-24T18:08:02.735Z,6.10
2019-02-24T18:11:28.649Z,6.00
2019-02-24T18:14:54.543Z,5.80
2019-02-24T18:18:20.513Z,5.40
2019-02-24T18:21:27.380Z,5.30
2019-02-24T18:24:53.310Z,5.30
2019-02-24T18:28:19.472Z,5.20
2019-02-24T18:31:45.545Z,5.10
2019-02-24T18:35:13.747Z,4.90
2019-02-24T18:38:41.707Z,4.70
2019-02-24T18:42:07.653Z,4.50
2019-02-24T18:45:33.584Z,4.30
2019-02-24T18:48:59.509Z,4.10
2019-02-24T18:56:19.211Z,4.00
2019-02-24T18:59:47.666Z,4.10
2019-02-24T19:03:13.614Z,4.20
2019-02-24T19:06:39.610Z,4.30
2019-02-24T19:10:06.180Z,4.20
2019-02-24T19:13:32.474Z,4.10
2019-02-24T19:16:58.430Z,4.00
2019-02-24T19:20:17.224Z,3.90
2019-02-24T19:23:35.336Z,3.90
2019-02-24T19:26:54.741Z,3.90
2019-02-24T19:30:13.663Z,3.90
2019-02-24T19:33:20.912Z,3.70
2019-02-24T19:36:27.761Z,3.40
2019-02-24T19:39:56.587Z,3.40
2019-02-24T19:43:22.473Z,3.30
2019-02-24T19:47:04.679Z,3.20
2019-02-24T19:50:37.198Z,3.00
2019-02-24T19:54:03.185Z,2.80
2019-02-24T19:57:29.129Z,2.70
2019-02-24T20:01:12.628Z,2.60
2019-02-24T20:04:38.476Z,2.60
2019-02-24T20:08:04.440Z,2.60
2019-02-24T20:11:12.162Z,2.50
2019-02-24T20:14:38.657Z,2.50
2019-02-24T20:18:04.796Z,2.40
2019-02-24T20:21:22.964Z,2.50
2019-02-24T20:24:41.897Z,2.40
2019-02-24T20:28:00.211Z,2.20
2019-02-24T20:31:07.075Z,2.10
2019-02-24T20:34:14.007Z,2.10
2019-02-24T20:37:40.839Z,2.00
2019-02-24T20:41:06.768Z,1.90
2019-02-24T20:44:33.183Z,1.80
2019-02-24T20:47:59.748Z,1.70
2019-02-24T20:55:12.302Z,1.60
2019-02-24T20:58:38.174Z,1.50
2019-02-24T21:02:04.572Z,1.50
2019-02-24T21:05:30.729Z,1.40
2019-02-24T21:08:57.721Z,1.30
2019-02-24T21:12:24.957Z,1.30
2019-02-24T21:15:55.952Z,1.20
2019-02-24T21:19:20.510Z,1.20
2019-02-24T21:26:13.151Z,1.10
2019-02-24T21:33:29.303Z,1.10
2019-02-24T21:36:55.192Z,1.00
2019-02-24T21:40:23.351Z,0.90
2019-02-24T21:44:06.411Z,0.80
2019-02-24T21:55:09.831Z,0.80
2019-02-24T21:58:18.047Z,0.70
2019-02-24T22:01:45.664Z,0.70
2019-02-24T22:09:00.866Z,0.50
2019-02-24T22:12:37.185Z,0.50
2019-02-24T22:16:03.173Z,0.60
2019-02-24T22:19:30.091Z,0.60
2019-02-24T22:23:06.031Z,0.70
2019-02-24T22:26:25.434Z,0.70
2019-02-24T22:29:43.551Z,0.60
2019-02-24T22:33:02.435Z,0.40
2019-02-24T22:36:21.915Z,0.40
2019-02-24T22:39:41.797Z,0.40
2019-02-24T22:47:08.746Z,0.40
2019-02-24T22:50:27.188Z,0.40
2019-02-24T22:53:46.216Z,0.30
2019-02-24T22:57:04.336Z,0.20
2019-02-24T23:00:23.570Z,0.20
2019-02-24T23:03:45.705Z,0.30
2019-02-24T23:07:04.380Z,0.30
2019-02-24T23:10:23.794Z,0.20
2019-02-24T23:13:42.109Z,0.00
2019-02-24T23:17:01.578Z,0.00
2019-02-24T23:20:20.893Z,-0.10
2019-02-24T23:23:42.997Z,-0.10
2019-02-24T23:27:08.708Z,-0.10
2019-02-24T23:30:30.429Z,-0.10
2019-02-24T23:33:48.716Z,-0.10
2019-02-24T23:37:07.037Z,-0.10
2019-02-24T23:40:25.608Z,-0.20
2019-02-24T23:43:46.814Z,-0.30
2019-02-24T23:47:05.987Z,-0.40
2019-02-24T23:50:25.798Z,-0.40
2019-02-24T23:53:44.330Z,-0.40
2019-02-24T23:57:03.238Z,-0.40
